DLH8PZ LROP-LRTR
Flight info
| Callsign | DLH8PZ |
|---|---|
| Flight time | 0h 54m |
| Altitude | 26000 |
| Route | SOKRU DCT OXDOC DCT NEKUL |
| Aircraft | A346/H-SDE2E3FGHIJ3J4J5M1RWXY/LB1D1 |
Departure
| Time | 2026-04-22 14:15 |
|---|---|
| Airport | Bucharest Henri Coandă International Airport (LROP) |
Arrival
| Time | 2026-04-22 15:09 |
|---|---|
| Airport | Timișoara Traian Vuia International Airport (LRTR) |
| Time | Latitude | Longitude | Altitude | Speed | Heading |
|---|---|---|---|---|---|
| 2026-04-22 13:54 | 44.57036 | 26.08263 | 324 ft | 0 kts | 307° |
| 2026-04-22 14:05 | 44.57009 | 26.08320 | 320 ft | 4 kts | 301° |
| 2026-04-22 14:06 | 44.56995 | 26.08352 | 320 ft | 4 kts | 302° |
| 2026-04-22 14:06 | 44.56983 | 26.08376 | 320 ft | 4 kts | 313° |
| 2026-04-22 14:06 | 44.56965 | 26.08393 | 320 ft | 4 kts | 343° |
| 2026-04-22 14:06 | 44.56940 | 26.08398 | 320 ft | 4 kts | 356° |
| 2026-04-22 14:07 | 44.56927 | 26.08400 | 320 ft | 0 kts | 354° |
| 2026-04-22 14:09 | 44.56936 | 26.08398 | 320 ft | 3 kts | 354° |
| 2026-04-22 14:09 | 44.56971 | 26.08393 | 321 ft | 7 kts | 354° |
| 2026-04-22 14:09 | 44.57034 | 26.08385 | 324 ft | 11 kts | 354° |
| 2026-04-22 14:10 | 44.57123 | 26.08372 | 324 ft | 15 kts | 354° |
| 2026-04-22 14:10 | 44.57205 | 26.08376 | 322 ft | 10 kts | 21° |
| 2026-04-22 14:10 | 44.57229 | 26.08433 | 324 ft | 0 kts | 85° |
| 2026-04-22 14:10 | 44.57229 | 26.08444 | 325 ft | 2 kts | 85° |
| 2026-04-22 14:11 | 44.57235 | 26.08465 | 326 ft | 3 kts | 54° |
| 2026-04-22 14:11 | 44.57254 | 26.08484 | 325 ft | 5 kts | 27° |
| 2026-04-22 14:11 | 44.57293 | 26.08491 | 325 ft | 7 kts | 2° |
| 2026-04-22 14:11 | 44.57346 | 26.08485 | 326 ft | 9 kts | 353° |
| 2026-04-22 14:12 | 44.57415 | 26.08474 | 328 ft | 11 kts | 354° |
| 2026-04-22 14:12 | 44.57499 | 26.08462 | 328 ft | 13 kts | 354° |
| 2026-04-22 14:12 | 44.57535 | 26.08457 | 332 ft | 5 kts | 354° |
| 2026-04-22 14:12 | 44.57569 | 26.08452 | 330 ft | 5 kts | 354° |
| 2026-04-22 14:13 | 44.57612 | 26.08445 | 333 ft | 7 kts | 354° |
| 2026-04-22 14:13 | 44.57661 | 26.08450 | 334 ft | 5 kts | 39° |
| 2026-04-22 14:13 | 44.57666 | 26.08469 | 332 ft | 1 kts | 79° |
| 2026-04-22 14:13 | 44.57668 | 26.08490 | 335 ft | 4 kts | 82° |
| 2026-04-22 14:14 | 44.57674 | 26.08553 | 337 ft | 16 kts | 83° |
| 2026-04-22 14:14 | 44.57714 | 26.09092 | 323 ft | 93 kts | 84° |
| 2026-04-22 14:14 | 44.57805 | 26.10283 | 332 ft | 153 kts | 84° |
| 2026-04-22 14:14 | 44.57929 | 26.11955 | 658 ft | 179 kts | 84° |
| 2026-04-22 14:15 | 44.58051 | 26.13658 | 1574 ft | 176 kts | 83° |
| 2026-04-22 14:15 | 44.58179 | 26.15318 | 2356 ft | 180 kts | 82° |
| 2026-04-22 14:15 | 44.58348 | 26.17090 | 2867 ft | 193 kts | 73° |
| 2026-04-22 14:15 | 44.59137 | 26.18630 | 3301 ft | 208 kts | 30° |
| 2026-04-22 14:16 | 44.60600 | 26.18983 | 3704 ft | 229 kts | 347° |
| 2026-04-22 14:16 | 44.61995 | 26.17801 | 4225 ft | 250 kts | 311° |
| 2026-04-22 14:16 | 44.62969 | 26.15724 | 4997 ft | 262 kts | 300° |
| 2026-04-22 14:16 | 44.63845 | 26.13454 | 6003 ft | 264 kts | 300° |
| 2026-04-22 14:17 | 44.64736 | 26.11197 | 7051 ft | 266 kts | 301° |
| 2026-04-22 14:17 | 44.65670 | 26.08942 | 8070 ft | 268 kts | 301° |
| 2026-04-22 14:17 | 44.66637 | 26.06679 | 9117 ft | 271 kts | 302° |
| 2026-04-22 14:17 | 44.67631 | 26.04402 | 10176 ft | 274 kts | 302° |
| 2026-04-22 14:18 | 44.68654 | 26.02085 | 10998 ft | 285 kts | 302° |
| 2026-04-22 14:18 | 44.69730 | 25.99662 | 11613 ft | 303 kts | 302° |
| 2026-04-22 14:18 | 44.70886 | 25.97067 | 12201 ft | 322 kts | 302° |
| 2026-04-22 14:18 | 44.72097 | 25.94353 | 12766 ft | 341 kts | 302° |
| 2026-04-22 14:19 | 44.73406 | 25.91429 | 13307 ft | 360 kts | 302° |
| 2026-04-22 14:19 | 44.74755 | 25.88419 | 14005 ft | 371 kts | 302° |
| 2026-04-22 14:19 | 44.76136 | 25.85331 | 14939 ft | 373 kts | 302° |
| 2026-04-22 14:19 | 44.77518 | 25.82237 | 15894 ft | 376 kts | 302° |
| 2026-04-22 14:20 | 44.80332 | 25.75927 | 17736 ft | 383 kts | 302° |
| 2026-04-22 14:20 | 44.81758 | 25.72725 | 18597 ft | 387 kts | 302° |
| 2026-04-22 14:20 | 44.83186 | 25.69513 | 19378 ft | 391 kts | 302° |
| 2026-04-22 14:21 | 44.86109 | 25.62935 | 20881 ft | 400 kts | 302° |
| 2026-04-22 14:21 | 44.87588 | 25.59599 | 21622 ft | 404 kts | 301° |
| 2026-04-22 14:22 | 44.90585 | 25.52831 | 23429 ft | 404 kts | 302° |
| 2026-04-22 14:22 | 44.92070 | 25.49473 | 24359 ft | 401 kts | 302° |
| 2026-04-22 14:22 | 44.95032 | 25.42764 | 25754 ft | 406 kts | 301° |
| 2026-04-22 14:23 | 44.96531 | 25.39359 | 26037 ft | 409 kts | 301° |
| 2026-04-22 14:23 | 44.97982 | 25.35911 | 26040 ft | 411 kts | 298° |
| 2026-04-22 14:23 | 44.99283 | 25.32295 | 26045 ft | 411 kts | 295° |
| 2026-04-22 14:23 | 45.00411 | 25.28590 | 26045 ft | 411 kts | 291° |
| 2026-04-22 14:24 | 45.01418 | 25.24800 | 26042 ft | 411 kts | 290° |
| 2026-04-22 14:24 | 45.02392 | 25.21042 | 26045 ft | 412 kts | 290° |
| 2026-04-22 14:24 | 45.03288 | 25.17191 | 26048 ft | 412 kts | 287° |
| 2026-04-22 14:24 | 45.04078 | 25.13300 | 26045 ft | 412 kts | 286° |
| 2026-04-22 14:25 | 45.04853 | 25.09395 | 26043 ft | 412 kts | 286° |
| 2026-04-22 14:25 | 45.05623 | 25.05497 | 26045 ft | 412 kts | 286° |
| 2026-04-22 14:25 | 45.06393 | 25.01596 | 26044 ft | 412 kts | 286° |
| 2026-04-22 14:25 | 45.07161 | 24.97706 | 26048 ft | 412 kts | 286° |
| 2026-04-22 14:26 | 45.07934 | 24.93788 | 26048 ft | 412 kts | 286° |
| 2026-04-22 14:26 | 45.08695 | 24.89930 | 26047 ft | 412 kts | 286° |
| 2026-04-22 14:26 | 45.09467 | 24.86010 | 26047 ft | 413 kts | 286° |
| 2026-04-22 14:26 | 45.10238 | 24.82086 | 26045 ft | 413 kts | 286° |
| 2026-04-22 14:27 | 45.11008 | 24.78168 | 26046 ft | 413 kts | 286° |
| 2026-04-22 14:27 | 45.11777 | 24.74240 | 26045 ft | 413 kts | 286° |
| 2026-04-22 14:27 | 45.12547 | 24.70304 | 26045 ft | 413 kts | 286° |
| 2026-04-22 14:27 | 45.13314 | 24.66375 | 26045 ft | 413 kts | 286° |
| 2026-04-22 14:28 | 45.14069 | 24.62494 | 26045 ft | 413 kts | 286° |
| 2026-04-22 14:28 | 45.14834 | 24.58562 | 26046 ft | 413 kts | 286° |
| 2026-04-22 14:28 | 45.15599 | 24.54616 | 26045 ft | 413 kts | 286° |
| 2026-04-22 14:28 | 45.16361 | 24.50678 | 26043 ft | 414 kts | 286° |
| 2026-04-22 14:29 | 45.17122 | 24.46744 | 26040 ft | 414 kts | 286° |
| 2026-04-22 14:29 | 45.17883 | 24.42795 | 26042 ft | 414 kts | 286° |
| 2026-04-22 14:29 | 45.18641 | 24.38854 | 26039 ft | 414 kts | 286° |
| 2026-04-22 14:29 | 45.19400 | 24.34904 | 26041 ft | 414 kts | 286° |
| 2026-04-22 14:30 | 45.20156 | 24.30953 | 26043 ft | 414 kts | 285° |
| 2026-04-22 14:30 | 45.20908 | 24.27022 | 26043 ft | 414 kts | 285° |
| 2026-04-22 14:30 | 45.21662 | 24.23071 | 26045 ft | 414 kts | 285° |
| 2026-04-22 14:30 | 45.22415 | 24.19117 | 26037 ft | 414 kts | 285° |
| 2026-04-22 14:31 | 45.23166 | 24.15166 | 26038 ft | 415 kts | 285° |
| 2026-04-22 14:31 | 45.23915 | 24.11207 | 26046 ft | 414 kts | 286° |
| 2026-04-22 14:31 | 45.24657 | 24.07302 | 26045 ft | 414 kts | 286° |
| 2026-04-22 14:31 | 45.25403 | 24.03363 | 26045 ft | 413 kts | 286° |
| 2026-04-22 14:32 | 45.26161 | 23.99359 | 26044 ft | 413 kts | 285° |
| 2026-04-22 14:32 | 45.26897 | 23.95451 | 26047 ft | 413 kts | 286° |
| 2026-04-22 14:32 | 45.27639 | 23.91503 | 26042 ft | 414 kts | 285° |
| 2026-04-22 14:32 | 45.28382 | 23.87547 | 26047 ft | 415 kts | 285° |
| 2026-04-22 14:33 | 45.29120 | 23.83587 | 26046 ft | 413 kts | 285° |
| 2026-04-22 14:33 | 45.29858 | 23.79624 | 26039 ft | 414 kts | 286° |
| 2026-04-22 14:33 | 45.30591 | 23.75672 | 26047 ft | 413 kts | 286° |
| 2026-04-22 14:33 | 45.31333 | 23.71718 | 26041 ft | 414 kts | 285° |
| 2026-04-22 14:34 | 45.32068 | 23.67753 | 26046 ft | 414 kts | 286° |
| 2026-04-22 14:34 | 45.32803 | 23.63784 | 25976 ft | 416 kts | 285° |
| 2026-04-22 14:34 | 45.33534 | 23.59818 | 25708 ft | 414 kts | 285° |
| 2026-04-22 14:34 | 45.34259 | 23.55851 | 25383 ft | 409 kts | 285° |
| 2026-04-22 14:35 | 45.34974 | 23.51959 | 24959 ft | 407 kts | 285° |
| 2026-04-22 14:35 | 45.35685 | 23.48081 | 24458 ft | 404 kts | 286° |
| 2026-04-22 14:35 | 45.36399 | 23.44214 | 23911 ft | 404 kts | 285° |
| 2026-04-22 14:35 | 45.37107 | 23.40346 | 23248 ft | 405 kts | 285° |
| 2026-04-22 14:36 | 45.37806 | 23.36519 | 22570 ft | 406 kts | 285° |
| 2026-04-22 14:36 | 45.38512 | 23.32614 | 21912 ft | 405 kts | 285° |
| 2026-04-22 14:36 | 45.39217 | 23.28712 | 21315 ft | 404 kts | 285° |
| 2026-04-22 14:36 | 45.39915 | 23.24848 | 20667 ft | 403 kts | 285° |
| 2026-04-22 14:37 | 45.40607 | 23.21028 | 20211 ft | 399 kts | 285° |
| 2026-04-22 14:37 | 45.41289 | 23.17255 | 19779 ft | 396 kts | 285° |
| 2026-04-22 14:37 | 45.41972 | 23.13459 | 19332 ft | 392 kts | 285° |
| 2026-04-22 14:37 | 45.42649 | 23.09697 | 18883 ft | 389 kts | 285° |
| 2026-04-22 14:38 | 45.43313 | 23.05976 | 18410 ft | 386 kts | 285° |
| 2026-04-22 14:38 | 45.43972 | 23.02276 | 17912 ft | 383 kts | 285° |
| 2026-04-22 14:38 | 45.44626 | 22.98619 | 17439 ft | 379 kts | 285° |
| 2026-04-22 14:38 | 45.45263 | 22.95038 | 17021 ft | 374 kts | 285° |
| 2026-04-22 14:39 | 45.45902 | 22.91461 | 16601 ft | 370 kts | 285° |
| 2026-04-22 14:39 | 45.46535 | 22.87914 | 16155 ft | 368 kts | 285° |
| 2026-04-22 14:39 | 45.47159 | 22.84386 | 15716 ft | 365 kts | 284° |
| 2026-04-22 14:40 | 45.48186 | 22.78554 | 14979 ft | 363 kts | 285° |
| 2026-04-22 14:40 | 45.49007 | 22.73893 | 14388 ft | 361 kts | 285° |
| 2026-04-22 14:40 | 45.49618 | 22.70428 | 13931 ft | 360 kts | 285° |
| 2026-04-22 14:40 | 45.50228 | 22.66953 | 13418 ft | 360 kts | 285° |
| 2026-04-22 14:41 | 45.50829 | 22.63493 | 12939 ft | 358 kts | 285° |
| 2026-04-22 14:41 | 45.51432 | 22.60055 | 12485 ft | 356 kts | 285° |
| 2026-04-22 14:41 | 45.52109 | 22.56667 | 12040 ft | 352 kts | 288° |
| 2026-04-22 14:41 | 45.52842 | 22.53354 | 11629 ft | 349 kts | 289° |
| 2026-04-22 14:42 | 45.53582 | 22.50060 | 11206 ft | 347 kts | 289° |
| 2026-04-22 14:42 | 45.54308 | 22.46798 | 10851 ft | 342 kts | 289° |
| 2026-04-22 14:42 | 45.55000 | 22.43670 | 10742 ft | 327 kts | 290° |
| 2026-04-22 14:42 | 45.55677 | 22.40635 | 10611 ft | 314 kts | 290° |
| 2026-04-22 14:43 | 45.56324 | 22.37714 | 10473 ft | 302 kts | 290° |
| 2026-04-22 14:43 | 45.56946 | 22.34889 | 10318 ft | 293 kts | 290° |
| 2026-04-22 14:43 | 45.57550 | 22.32172 | 10243 ft | 280 kts | 290° |
| 2026-04-22 14:43 | 45.58124 | 22.29567 | 10168 ft | 270 kts | 290° |
| 2026-04-22 14:44 | 45.58685 | 22.27027 | 10082 ft | 266 kts | 291° |
| 2026-04-22 14:44 | 45.59245 | 22.24512 | 9965 ft | 264 kts | 290° |
| 2026-04-22 14:44 | 45.59798 | 22.22002 | 9624 ft | 265 kts | 289° |
| 2026-04-22 14:44 | 45.60335 | 22.19528 | 9321 ft | 264 kts | 290° |
| 2026-04-22 14:45 | 45.60881 | 22.17033 | 9022 ft | 262 kts | 290° |
| 2026-04-22 14:45 | 45.61429 | 22.14552 | 8737 ft | 261 kts | 290° |
| 2026-04-22 14:45 | 45.61786 | 22.12914 | 8546 ft | 260 kts | 290° |
| 2026-04-22 14:45 | 45.62502 | 22.09649 | 8190 ft | 259 kts | 290° |
| 2026-04-22 14:46 | 45.63041 | 22.07183 | 7889 ft | 258 kts | 290° |
| 2026-04-22 14:46 | 45.63575 | 22.04734 | 7612 ft | 257 kts | 290° |
| 2026-04-22 14:46 | 45.63931 | 22.03087 | 7429 ft | 256 kts | 290° |
| 2026-04-22 14:46 | 45.64452 | 22.00680 | 7155 ft | 255 kts | 290° |
| 2026-04-22 14:47 | 45.65158 | 21.97443 | 6798 ft | 254 kts | 290° |
| 2026-04-22 14:47 | 45.65503 | 21.95850 | 6612 ft | 254 kts | 290° |
| 2026-04-22 14:47 | 45.66026 | 21.93438 | 6353 ft | 253 kts | 290° |
| 2026-04-22 14:47 | 45.66546 | 21.91040 | 6073 ft | 252 kts | 290° |
| 2026-04-22 14:48 | 45.67065 | 21.88644 | 5798 ft | 251 kts | 290° |
| 2026-04-22 14:48 | 45.67630 | 21.86282 | 5524 ft | 250 kts | 293° |
| 2026-04-22 14:48 | 45.68226 | 21.83956 | 5264 ft | 248 kts | 294° |
| 2026-04-22 14:48 | 45.68822 | 21.81640 | 4991 ft | 248 kts | 294° |
| 2026-04-22 14:49 | 45.69412 | 21.79351 | 4720 ft | 247 kts | 293° |
| 2026-04-22 14:49 | 45.70004 | 21.77045 | 4443 ft | 247 kts | 293° |
| 2026-04-22 14:49 | 45.70598 | 21.74726 | 4183 ft | 248 kts | 293° |
| 2026-04-22 14:49 | 45.71192 | 21.72405 | 3903 ft | 247 kts | 293° |
| 2026-04-22 14:50 | 45.71787 | 21.70091 | 3637 ft | 246 kts | 295° |
| 2026-04-22 14:50 | 45.72430 | 21.67816 | 3376 ft | 246 kts | 295° |
| 2026-04-22 14:50 | 45.73060 | 21.65532 | 3102 ft | 247 kts | 295° |
| 2026-04-22 14:50 | 45.73660 | 21.63236 | 3000 ft | 240 kts | 294° |
| 2026-04-22 14:51 | 45.74209 | 21.61047 | 2993 ft | 226 kts | 294° |
| 2026-04-22 14:51 | 45.74716 | 21.58986 | 2995 ft | 213 kts | 293° |
| 2026-04-22 14:51 | 45.75202 | 21.57010 | 2997 ft | 209 kts | 294° |
| 2026-04-22 14:51 | 45.75678 | 21.55079 | 2981 ft | 202 kts | 294° |
| 2026-04-22 14:52 | 45.76141 | 21.53203 | 2891 ft | 202 kts | 294° |
| 2026-04-22 14:52 | 45.76611 | 21.51308 | 2658 ft | 197 kts | 294° |
| 2026-04-22 14:52 | 45.77052 | 21.49522 | 2404 ft | 185 kts | 294° |
| 2026-04-22 14:52 | 45.77471 | 21.47835 | 2120 ft | 173 kts | 294° |
| 2026-04-22 14:53 | 45.77861 | 21.46263 | 1871 ft | 161 kts | 295° |
| 2026-04-22 14:53 | 45.78224 | 21.44804 | 1652 ft | 149 kts | 294° |
| 2026-04-22 14:53 | 45.78563 | 21.43444 | 1453 ft | 144 kts | 295° |
| 2026-04-22 14:53 | 45.78902 | 21.42095 | 1280 ft | 143 kts | 295° |
| 2026-04-22 14:54 | 45.79239 | 21.40758 | 1088 ft | 143 kts | 294° |
| 2026-04-22 14:54 | 45.79583 | 21.39422 | 891 ft | 141 kts | 292° |
| 2026-04-22 14:54 | 45.79905 | 21.38102 | 679 ft | 140 kts | 291° |
| 2026-04-22 14:54 | 45.80221 | 21.36772 | 531 ft | 140 kts | 293° |
| 2026-04-22 14:55 | 45.80555 | 21.35472 | 359 ft | 136 kts | 293° |
| 2026-04-22 14:55 | 45.80850 | 21.34293 | 384 ft | 137 kts | 292° |
| 2026-04-22 14:55 | 45.81199 | 21.32801 | 883 ft | 175 kts | 292° |
| 2026-04-22 14:55 | 45.81661 | 21.31031 | 1776 ft | 197 kts | 295° |
| 2026-04-22 14:56 | 45.82170 | 21.29195 | 2870 ft | 199 kts | 295° |
| 2026-04-22 14:56 | 45.82605 | 21.27238 | 3539 ft | 214 kts | 277° |
| 2026-04-22 14:56 | 45.82341 | 21.25139 | 3921 ft | 224 kts | 244° |
| 2026-04-22 14:56 | 45.81705 | 21.23928 | 4003 ft | 229 kts | 222° |
| 2026-04-22 14:57 | 45.79754 | 21.22887 | 3993 ft | 230 kts | 175° |
| 2026-04-22 14:57 | 45.78261 | 21.23572 | 4002 ft | 229 kts | 145° |
| 2026-04-22 14:57 | 45.76993 | 21.25044 | 4015 ft | 244 kts | 131° |
| 2026-04-22 14:57 | 45.75861 | 21.26917 | 4008 ft | 251 kts | 127° |
| 2026-04-22 14:58 | 45.74761 | 21.28872 | 4005 ft | 253 kts | 125° |
| 2026-04-22 14:58 | 45.73678 | 21.30855 | 3995 ft | 251 kts | 121° |
| 2026-04-22 14:58 | 45.72758 | 21.32977 | 3999 ft | 251 kts | 116° |
| 2026-04-22 14:58 | 45.71887 | 21.35149 | 3994 ft | 251 kts | 116° |
| 2026-04-22 14:59 | 45.71028 | 21.37329 | 3997 ft | 251 kts | 115° |
| 2026-04-22 14:59 | 45.70174 | 21.39508 | 4014 ft | 250 kts | 116° |
| 2026-04-22 14:59 | 45.69324 | 21.41689 | 4013 ft | 251 kts | 115° |
| 2026-04-22 14:59 | 45.68471 | 21.43868 | 4014 ft | 251 kts | 115° |
| 2026-04-22 15:00 | 45.67629 | 21.46006 | 3971 ft | 247 kts | 115° |
| 2026-04-22 15:00 | 45.66778 | 21.48160 | 3636 ft | 249 kts | 116° |
| 2026-04-22 15:00 | 45.65926 | 21.50322 | 3334 ft | 249 kts | 115° |
| 2026-04-22 15:00 | 45.65083 | 21.52470 | 3166 ft | 244 kts | 115° |
| 2026-04-22 15:01 | 45.64261 | 21.54555 | 3005 ft | 237 kts | 115° |
| 2026-04-22 15:01 | 45.63573 | 21.56609 | 2984 ft | 219 kts | 94° |
| 2026-04-22 15:01 | 45.63773 | 21.58609 | 2988 ft | 198 kts | 56° |
| 2026-04-22 15:01 | 45.64644 | 21.60048 | 3034 ft | 184 kts | 32° |
| 2026-04-22 15:02 | 45.65719 | 21.60738 | 3018 ft | 159 kts | 11° |
| 2026-04-22 15:02 | 45.66758 | 21.60798 | 2979 ft | 146 kts | 352° |
| 2026-04-22 15:02 | 45.67738 | 21.60537 | 2990 ft | 143 kts | 350° |
| 2026-04-22 15:02 | 45.68706 | 21.60252 | 3001 ft | 142 kts | 350° |
| 2026-04-22 15:03 | 45.69678 | 21.59976 | 3001 ft | 142 kts | 350° |
| 2026-04-22 15:03 | 45.70647 | 21.59710 | 3006 ft | 142 kts | 351° |
| 2026-04-22 15:03 | 45.71619 | 21.59448 | 3014 ft | 142 kts | 351° |
| 2026-04-22 15:03 | 45.72594 | 21.59188 | 3010 ft | 142 kts | 351° |
| 2026-04-22 15:04 | 45.73553 | 21.58933 | 3016 ft | 142 kts | 348° |
| 2026-04-22 15:04 | 45.74429 | 21.58242 | 2999 ft | 146 kts | 318° |
| 2026-04-22 15:04 | 45.74980 | 21.57059 | 2999 ft | 143 kts | 304° |
| 2026-04-22 15:04 | 45.75395 | 21.55789 | 2986 ft | 144 kts | 301° |
| 2026-04-22 15:05 | 45.75785 | 21.54470 | 2991 ft | 145 kts | 298° |
| 2026-04-22 15:05 | 45.76152 | 21.53116 | 2891 ft | 146 kts | 297° |
| 2026-04-22 15:05 | 45.76500 | 21.51756 | 2694 ft | 144 kts | 297° |
| 2026-04-22 15:05 | 45.76835 | 21.50425 | 2500 ft | 144 kts | 296° |
| 2026-04-22 15:06 | 45.77167 | 21.49085 | 2306 ft | 143 kts | 296° |
| 2026-04-22 15:06 | 45.77496 | 21.47753 | 2114 ft | 142 kts | 296° |
| 2026-04-22 15:06 | 45.77827 | 21.46420 | 1920 ft | 143 kts | 295° |
| 2026-04-22 15:06 | 45.78160 | 21.45075 | 1732 ft | 142 kts | 296° |
| 2026-04-22 15:07 | 45.78492 | 21.43740 | 1556 ft | 141 kts | 296° |
| 2026-04-22 15:07 | 45.78822 | 21.42414 | 1356 ft | 142 kts | 297° |
| 2026-04-22 15:07 | 45.79151 | 21.41091 | 1169 ft | 140 kts | 297° |
| 2026-04-22 15:07 | 45.79471 | 21.39791 | 992 ft | 137 kts | 298° |
| 2026-04-22 15:08 | 45.79801 | 21.38513 | 728 ft | 137 kts | 297° |
| 2026-04-22 15:08 | 45.80123 | 21.37255 | 528 ft | 137 kts | 294° |
| 2026-04-22 15:08 | 45.80443 | 21.35937 | 373 ft | 138 kts | 294° |
| 2026-04-22 15:08 | 45.80731 | 21.34796 | 359 ft | 100 kts | 289° |
| 2026-04-22 15:09 | 45.80902 | 21.34118 | 353 ft | 49 kts | 290° |
| 2026-04-22 15:09 | 45.80972 | 21.33839 | 360 ft | 24 kts | 289° |
| 2026-04-22 15:09 | 45.81008 | 21.33641 | 357 ft | 21 kts | 268° |
| 2026-04-22 15:09 | 45.80941 | 21.33553 | 358 ft | 7 kts | 198° |
| 2026-04-22 15:10 | 45.80887 | 21.33511 | 355 ft | 11 kts | 229° |
| 2026-04-22 15:10 | 45.80874 | 21.33392 | 353 ft | 14 kts | 278° |